sensor_id;sensor_type;location;lat;lon;timestamp;temperature;humidity
32612;DHT22;19030;49.478;8.986;2023-12-20T00:01:34;5.50;99.90
32612;DHT22;19030;49.478;8.986;2023-12-20T00:03:35;5.50;99.90
32612;DHT22;19030;49.478;8.986;2023-12-20T00:05:35;5.50;99.90
32612;DHT22;19030;49.478;8.986;2023-12-20T00:07:38;5.50;99.90
32612;DHT22;19030;49.478;8.986;2023-12-20T00:09:39;5.50;99.90
32612;DHT22;19030;49.478;8.986;2023-12-20T00:11:39;5.50;99.90
32612;DHT22;19030;49.478;8.986;2023-12-20T00:13:42;5.50;99.90
32612;DHT22;19030;49.478;8.986;2023-12-20T00:15:43;5.50;99.90
32612;DHT22;19030;49.478;8.986;2023-12-20T00:17:43;5.50;99.90
32612;DHT22;19030;49.478;8.986;2023-12-20T00:19:44;5.50;99.90
32612;DHT22;19030;49.478;8.986;2023-12-20T00:21:44;5.50;99.90
32612;DHT22;19030;49.478;8.986;2023-12-20T00:23:45;5.50;99.90
32612;DHT22;19030;49.478;8.986;2023-12-20T00:25:45;5.50;99.90
32612;DHT22;19030;49.478;8.986;2023-12-20T00:27:46;5.50;99.90
32612;DHT22;19030;49.478;8.986;2023-12-20T00:29:46;5.50;99.90
32612;DHT22;19030;49.478;8.986;2023-12-20T00:31:50;5.50;99.90
32612;DHT22;19030;49.478;8.986;2023-12-20T00:33:50;5.60;99.90
32612;DHT22;19030;49.478;8.986;2023-12-20T00:35:51;5.60;99.90
32612;DHT22;19030;49.478;8.986;2023-12-20T00:37:51;5.50;99.90
32612;DHT22;19030;49.478;8.986;2023-12-20T00:39:52;5.50;99.90
32612;DHT22;19030;49.478;8.986;2023-12-20T00:41:52;5.60;99.90
32612;DHT22;19030;49.478;8.986;2023-12-20T00:43:53;5.60;99.90
32612;DHT22;19030;49.478;8.986;2023-12-20T00:45:53;5.50;99.90
32612;DHT22;19030;49.478;8.986;2023-12-20T00:47:54;5.50;99.90
32612;DHT22;19030;49.478;8.986;2023-12-20T00:49:54;5.50;99.90
32612;DHT22;19030;49.478;8.986;2023-12-20T00:51:55;5.50;99.90
32612;DHT22;19030;49.478;8.986;2023-12-20T00:53:55;5.50;99.90
32612;DHT22;19030;49.478;8.986;2023-12-20T00:55:56;5.50;99.90
32612;DHT22;19030;49.478;8.986;2023-12-20T00:57:59;5.50;99.90
32612;DHT22;19030;49.478;8.986;2023-12-20T01:00:00;5.50;99.90
32612;DHT22;19030;49.478;8.986;2023-12-20T01:02:01;5.50;99.90
32612;DHT22;19030;49.478;8.986;2023-12-20T01:04:02;5.50;99.90
32612;DHT22;19030;49.478;8.986;2023-12-20T01:06:02;5.50;99.90
32612;DHT22;19030;49.478;8.986;2023-12-20T01:08:05;5.60;99.90
32612;DHT22;19030;49.478;8.986;2023-12-20T01:10:06;5.60;99.90
32612;DHT22;19030;49.478;8.986;2023-12-20T01:12:06;5.50;99.90
32612;DHT22;19030;49.478;8.986;2023-12-20T01:14:07;5.60;99.90
32612;DHT22;19030;49.478;8.986;2023-12-20T01:16:10;5.50;99.90
32612;DHT22;19030;49.478;8.986;2023-12-20T01:18:11;5.50;99.90
32612;DHT22;19030;49.478;8.986;2023-12-20T01:20:12;5.50;99.90
32612;DHT22;19030;49.478;8.986;2023-12-20T01:22:12;5.50;99.90
32612;DHT22;19030;49.478;8.986;2023-12-20T01:24:13;5.50;99.90
32612;DHT22;19030;49.478;8.986;2023-12-20T01:26:14;5.50;99.90
32612;DHT22;19030;49.478;8.986;2023-12-20T01:28:15;5.50;99.90
32612;DHT22;19030;49.478;8.986;2023-12-20T01:30:16;5.50;99.90
32612;DHT22;19030;49.478;8.986;2023-12-20T01:32:16;5.50;99.90
32612;DHT22;19030;49.478;8.986;2023-12-20T01:34:17;5.50;99.90
32612;DHT22;19030;49.478;8.986;2023-12-20T01:36:18;5.50;99.90
32612;DHT22;19030;49.478;8.986;2023-12-20T01:38:18;5.50;99.90
32612;DHT22;19030;49.478;8.986;2023-12-20T01:40:20;5.50;99.90
32612;DHT22;19030;49.478;8.986;2023-12-20T01:42:20;5.50;99.90
32612;DHT22;19030;49.478;8.986;2023-12-20T01:44:22;5.40;99.90
32612;DHT22;19030;49.478;8.986;2023-12-20T01:46:23;5.40;99.90
32612;DHT22;19030;49.478;8.986;2023-12-20T01:48:24;5.40;99.90
32612;DHT22;19030;49.478;8.986;2023-12-20T01:50:25;5.40;99.90
32612;DHT22;19030;49.478;8.986;2023-12-20T01:52:27;5.40;99.90
32612;DHT22;19030;49.478;8.986;2023-12-20T01:54:27;5.40;99.90
32612;DHT22;19030;49.478;8.986;2023-12-20T01:56:28;5.40;99.90
32612;DHT22;19030;49.478;8.986;2023-12-20T01:58:30;5.40;99.90
32612;DHT22;19030;49.478;8.986;2023-12-20T02:00:31;5.40;99.90
32612;DHT22;19030;49.478;8.986;2023-12-20T02:02:31;5.40;99.90
32612;DHT22;19030;49.478;8.986;2023-12-20T02:04:33;5.50;99.90
32612;DHT22;19030;49.478;8.986;2023-12-20T02:06:34;5.40;99.90
32612;DHT22;19030;49.478;8.986;2023-12-20T02:08:35;5.40;99.90
32612;DHT22;19030;49.478;8.986;2023-12-20T02:10:36;5.40;99.90
32612;DHT22;19030;49.478;8.986;2023-12-20T02:12:37;5.50;99.90
32612;DHT22;19030;49.478;8.986;2023-12-20T02:14:37;5.40;99.90
32612;DHT22;19030;49.478;8.986;2023-12-20T02:16:38;5.40;99.90
32612;DHT22;19030;49.478;8.986;2023-12-20T02:18:39;5.40;99.90
32612;DHT22;19030;49.478;8.986;2023-12-20T02:20:39;5.40;99.90
32612;DHT22;19030;49.478;8.986;2023-12-20T02:22:40;5.40;99.90
32612;DHT22;19030;49.478;8.986;2023-12-20T02:24:41;5.40;99.90
32612;DHT22;19030;49.478;8.986;2023-12-20T02:26:41;5.40;99.90
32612;DHT22;19030;49.478;8.986;2023-12-20T02:28:42;5.40;99.90
32612;DHT22;19030;49.478;8.986;2023-12-20T02:30:42;5.40;99.90
32612;DHT22;19030;49.478;8.986;2023-12-20T02:32:43;5.30;99.90
32612;DHT22;19030;49.478;8.986;2023-12-20T02:34:43;5.30;99.90
32612;DHT22;19030;49.478;8.986;2023-12-20T02:36:44;5.30;99.90
32612;DHT22;19030;49.478;8.986;2023-12-20T02:38:45;5.30;99.90
32612;DHT22;19030;49.478;8.986;2023-12-20T02:40:45;5.30;99.90
32612;DHT22;19030;49.478;8.986;2023-12-20T02:42:46;5.30;99.90
32612;DHT22;19030;49.478;8.986;2023-12-20T02:44:46;5.30;99.90
32612;DHT22;19030;49.478;8.986;2023-12-20T02:46:47;5.30;99.90
32612;DHT22;19030;49.478;8.986;2023-12-20T02:48:47;5.30;99.90
32612;DHT22;19030;49.478;8.986;2023-12-20T02:50:48;5.30;99.90
32612;DHT22;19030;49.478;8.986;2023-12-20T02:52:49;5.30;99.90
32612;DHT22;19030;49.478;8.986;2023-12-20T02:54:49;5.30;99.90
32612;DHT22;19030;49.478;8.986;2023-12-20T02:56:50;5.30;99.90
32612;DHT22;19030;49.478;8.986;2023-12-20T02:58:51;5.30;99.90
32612;DHT22;19030;49.478;8.986;2023-12-20T03:00:51;5.30;99.90
32612;DHT22;19030;49.478;8.986;2023-12-20T03:02:52;5.30;99.90
32612;DHT22;19030;49.478;8.986;2023-12-20T03:04:52;5.30;99.90
32612;DHT22;19030;49.478;8.986;2023-12-20T03:06:53;5.30;99.90
32612;DHT22;19030;49.478;8.986;2023-12-20T03:08:53;5.30;99.90
32612;DHT22;19030;49.478;8.986;2023-12-20T03:10:54;5.30;99.90
32612;DHT22;19030;49.478;8.986;2023-12-20T03:12:54;5.30;99.90
32612;DHT22;19030;49.478;8.986;2023-12-20T03:14:55;5.30;99.90
32612;DHT22;19030;49.478;8.986;2023-12-20T03:16:55;5.30;99.90
32612;DHT22;19030;49.478;8.986;2023-12-20T03:18:56;5.30;99.90
32612;DHT22;19030;49.478;8.986;2023-12-20T03:20:56;5.20;99.90
32612;DHT22;19030;49.478;8.986;2023-12-20T03:22:57;5.20;99.90
32612;DHT22;19030;49.478;8.986;2023-12-20T03:24:57;5.20;99.90
32612;DHT22;19030;49.478;8.986;2023-12-20T03:26:58;5.20;99.90
32612;DHT22;19030;49.478;8.986;2023-12-20T03:28:58;5.30;99.90
32612;DHT22;19030;49.478;8.986;2023-12-20T03:30:59;5.20;99.90
32612;DHT22;19030;49.478;8.986;2023-12-20T03:33:00;5.20;99.90
32612;DHT22;19030;49.478;8.986;2023-12-20T03:35:01;5.20;99.90
32612;DHT22;19030;49.478;8.986;2023-12-20T03:37:01;5.20;99.90
32612;DHT22;19030;49.478;8.986;2023-12-20T03:39:02;5.20;99.90
32612;DHT22;19030;49.478;8.986;2023-12-20T03:41:04;5.20;99.90
32612;DHT22;19030;49.478;8.986;2023-12-20T03:43:04;5.20;99.90
32612;DHT22;19030;49.478;8.986;2023-12-20T03:45:05;5.20;99.90
32612;DHT22;19030;49.478;8.986;2023-12-20T03:47:06;5.20;99.90
32612;DHT22;19030;49.478;8.986;2023-12-20T03:49:07;5.20;99.90
32612;DHT22;19030;49.478;8.986;2023-12-20T03:51:07;5.20;99.90
32612;DHT22;19030;49.478;8.986;2023-12-20T03:53:08;5.20;99.90
32612;DHT22;19030;49.478;8.986;2023-12-20T03:55:09;5.20;99.90
32612;DHT22;19030;49.478;8.986;2023-12-20T03:57:09;5.20;99.90
32612;DHT22;19030;49.478;8.986;2023-12-20T03:59:10;5.20;99.90
32612;DHT22;19030;49.478;8.986;2023-12-20T04:01:11;5.20;99.90
32612;DHT22;19030;49.478;8.986;2023-12-20T04:03:12;5.20;99.90
32612;DHT22;19030;49.478;8.986;2023-12-20T04:05:13;5.20;99.90
32612;DHT22;19030;49.478;8.986;2023-12-20T04:07:14;5.20;99.90
32612;DHT22;19030;49.478;8.986;2023-12-20T04:09:15;5.20;99.90
32612;DHT22;19030;49.478;8.986;2023-12-20T04:11:15;5.20;99.90
32612;DHT22;19030;49.478;8.986;2023-12-20T04:13:16;5.20;99.90
32612;DHT22;19030;49.478;8.986;2023-12-20T04:15:16;5.20;99.90
32612;DHT22;19030;49.478;8.986;2023-12-20T04:17:17;5.30;99.90
32612;DHT22;19030;49.478;8.986;2023-12-20T04:19:18;5.30;99.90
32612;DHT22;19030;49.478;8.986;2023-12-20T04:21:18;5.30;99.90
32612;DHT22;19030;49.478;8.986;2023-12-20T04:23:19;5.20;99.90
32612;DHT22;19030;49.478;8.986;2023-12-20T04:25:20;5.20;99.90
32612;DHT22;19030;49.478;8.986;2023-12-20T04:27:20;5.20;99.90
32612;DHT22;19030;49.478;8.986;2023-12-20T04:29:21;5.20;99.90
32612;DHT22;19030;49.478;8.986;2023-12-20T04:31:21;5.20;99.90
32612;DHT22;19030;49.478;8.986;2023-12-20T04:33:22;5.20;99.90
32612;DHT22;19030;49.478;8.986;2023-12-20T04:35:23;5.30;99.90
32612;DHT22;19030;49.478;8.986;2023-12-20T04:37:23;5.30;99.90
32612;DHT22;19030;49.478;8.986;2023-12-20T04:39:24;5.30;99.90
32612;DHT22;19030;49.478;8.986;2023-12-20T04:41:24;5.20;99.90
32612;DHT22;19030;49.478;8.986;2023-12-20T04:43:25;5.20;99.90
32612;DHT22;19030;49.478;8.986;2023-12-20T04:45:25;5.20;99.90
32612;DHT22;19030;49.478;8.986;2023-12-20T04:47:26;5.20;99.90
32612;DHT22;19030;49.478;8.986;2023-12-20T04:49:27;5.20;99.90
32612;DHT22;19030;49.478;8.986;2023-12-20T04:51:27;5.30;99.90
32612;DHT22;19030;49.478;8.986;2023-12-20T04:53:28;5.30;99.90
32612;DHT22;19030;49.478;8.986;2023-12-20T04:55:28;5.30;99.90
32612;DHT22;19030;49.478;8.986;2023-12-20T04:57:29;5.30;99.90
32612;DHT22;19030;49.478;8.986;2023-12-20T04:59:29;5.30;99.90
32612;DHT22;19030;49.478;8.986;2023-12-20T05:01:30;5.30;99.90
32612;DHT22;19030;49.478;8.986;2023-12-20T05:03:30;5.30;99.90
32612;DHT22;19030;49.478;8.986;2023-12-20T05:05:31;5.30;99.90
32612;DHT22;19030;49.478;8.986;2023-12-20T05:07:32;5.30;99.90
32612;DHT22;19030;49.478;8.986;2023-12-20T05:09:32;5.30;99.90
32612;DHT22;19030;49.478;8.986;2023-12-20T05:11:33;5.30;99.90
32612;DHT22;19030;49.478;8.986;2023-12-20T05:13:34;5.30;99.90
32612;DHT22;19030;49.478;8.986;2023-12-20T05:15:34;5.30;99.90
32612;DHT22;19030;49.478;8.986;2023-12-20T05:17:35;5.30;99.90
32612;DHT22;19030;49.478;8.986;2023-12-20T05:19:35;5.30;99.90
32612;DHT22;19030;49.478;8.986;2023-12-20T05:21:36;5.40;99.90
32612;DHT22;19030;49.478;8.986;2023-12-20T05:23:37;5.30;99.90
32612;DHT22;19030;49.478;8.986;2023-12-20T05:25:37;5.30;99.90
32612;DHT22;19030;49.478;8.986;2023-12-20T05:27:38;5.30;99.90
32612;DHT22;19030;49.478;8.986;2023-12-20T05:29:38;5.30;99.90
32612;DHT22;19030;49.478;8.986;2023-12-20T05:31:39;5.30;99.90
32612;DHT22;19030;49.478;8.986;2023-12-20T05:33:39;5.30;99.90
32612;DHT22;19030;49.478;8.986;2023-12-20T05:35:40;5.30;99.90
32612;DHT22;19030;49.478;8.986;2023-12-20T05:37:41;5.30;99.90
32612;DHT22;19030;49.478;8.986;2023-12-20T05:39:41;5.30;99.90
32612;DHT22;19030;49.478;8.986;2023-12-20T05:41:42;5.30;99.90
32612;DHT22;19030;49.478;8.986;2023-12-20T05:43:42;5.40;99.90
32612;DHT22;19030;49.478;8.986;2023-12-20T05:45:43;5.40;99.90
32612;DHT22;19030;49.478;8.986;2023-12-20T05:47:44;5.40;99.90
32612;DHT22;19030;49.478;8.986;2023-12-20T05:49:45;5.40;99.90
32612;DHT22;19030;49.478;8.986;2023-12-20T05:51:45;5.40;99.90
32612;DHT22;19030;49.478;8.986;2023-12-20T05:53:46;5.40;99.90
32612;DHT22;19030;49.478;8.986;2023-12-20T05:55:46;5.40;99.90
32612;DHT22;19030;49.478;8.986;2023-12-20T05:57:47;5.40;99.90
32612;DHT22;19030;49.478;8.986;2023-12-20T05:59:48;5.40;99.90
32612;DHT22;19030;49.478;8.986;2023-12-20T06:01:49;5.40;99.90
32612;DHT22;19030;49.478;8.986;2023-12-20T06:03:49;5.30;99.90
32612;DHT22;19030;49.478;8.986;2023-12-20T06:05:50;5.30;99.90
32612;DHT22;19030;49.478;8.986;2023-12-20T06:07:51;5.30;99.90
32612;DHT22;19030;49.478;8.986;2023-12-20T06:09:51;5.30;99.90
32612;DHT22;19030;49.478;8.986;2023-12-20T06:11:52;5.30;99.90
32612;DHT22;19030;49.478;8.986;2023-12-20T06:13:53;5.30;99.90
32612;DHT22;19030;49.478;8.986;2023-12-20T06:15:54;5.30;99.90
32612;DHT22;19030;49.478;8.986;2023-12-20T06:17:55;5.30;99.90
32612;DHT22;19030;49.478;8.986;2023-12-20T06:19:56;5.30;99.90
32612;DHT22;19030;49.478;8.986;2023-12-20T06:21:56;5.30;99.90
32612;DHT22;19030;49.478;8.986;2023-12-20T06:23:59;5.30;99.90
32612;DHT22;19030;49.478;8.986;2023-12-20T06:25:59;5.30;99.90
32612;DHT22;19030;49.478;8.986;2023-12-20T06:28:00;5.30;99.90
32612;DHT22;19030;49.478;8.986;2023-12-20T06:30:01;5.30;99.90
32612;DHT22;19030;49.478;8.986;2023-12-20T06:32:01;5.30;99.90
32612;DHT22;19030;49.478;8.986;2023-12-20T06:34:02;5.40;99.90
32612;DHT22;19030;49.478;8.986;2023-12-20T06:36:03;5.40;99.90
32612;DHT22;19030;49.478;8.986;2023-12-20T06:38:04;5.40;99.90
32612;DHT22;19030;49.478;8.986;2023-12-20T06:40:05;5.40;99.90
32612;DHT22;19030;49.478;8.986;2023-12-20T06:42:06;5.50;99.90
32612;DHT22;19030;49.478;8.986;2023-12-20T06:44:07;5.50;99.90
32612;DHT22;19030;49.478;8.986;2023-12-20T06:46:08;5.50;99.90
32612;DHT22;19030;49.478;8.986;2023-12-20T06:48:09;5.50;99.90
32612;DHT22;19030;49.478;8.986;2023-12-20T06:50:11;5.50;99.90
32612;DHT22;19030;49.478;8.986;2023-12-20T06:52:12;5.50;99.90
32612;DHT22;19030;49.478;8.986;2023-12-20T06:54:12;5.50;99.90
32612;DHT22;19030;49.478;8.986;2023-12-20T06:56:13;5.40;99.90
32612;DHT22;19030;49.478;8.986;2023-12-20T06:58:13;5.40;99.90
32612;DHT22;19030;49.478;8.986;2023-12-20T07:00:15;5.40;99.90
32612;DHT22;19030;49.478;8.986;2023-12-20T07:02:15;5.40;99.90
32612;DHT22;19030;49.478;8.986;2023-12-20T07:04:16;5.30;99.90
32612;DHT22;19030;49.478;8.986;2023-12-20T07:06:20;5.30;99.90
32612;DHT22;19030;49.478;8.986;2023-12-20T07:08:21;5.20;99.90
32612;DHT22;19030;49.478;8.986;2023-12-20T07:10:21;5.10;99.90
32612;DHT22;19030;49.478;8.986;2023-12-20T07:12:22;5.00;99.90
32612;DHT22;19030;49.478;8.986;2023-12-20T07:14:22;4.90;99.90
32612;DHT22;19030;49.478;8.986;2023-12-20T07:16:23;4.80;99.90
32612;DHT22;19030;49.478;8.986;2023-12-20T07:18:23;4.70;99.90
32612;DHT22;19030;49.478;8.986;2023-12-20T07:20:24;4.60;99.90
32612;DHT22;19030;49.478;8.986;2023-12-20T07:22:25;4.50;99.90
32612;DHT22;19030;49.478;8.986;2023-12-20T07:24:25;4.40;99.90
32612;DHT22;19030;49.478;8.986;2023-12-20T07:26:26;4.30;99.90
32612;DHT22;19030;49.478;8.986;2023-12-20T07:28:26;4.20;99.90
32612;DHT22;19030;49.478;8.986;2023-12-20T07:30:27;4.20;99.90
32612;DHT22;19030;49.478;8.986;2023-12-20T07:32:28;4.10;99.90
32612;DHT22;19030;49.478;8.986;2023-12-20T07:34:28;4.10;99.90
32612;DHT22;19030;49.478;8.986;2023-12-20T07:36:29;4.00;99.90
32612;DHT22;19030;49.478;8.986;2023-12-20T07:38:30;3.90;99.90
32612;DHT22;19030;49.478;8.986;2023-12-20T07:40:30;3.90;99.90
32612;DHT22;19030;49.478;8.986;2023-12-20T07:42:31;3.90;99.90
32612;DHT22;19030;49.478;8.986;2023-12-20T07:44:31;4.00;99.90
32612;DHT22;19030;49.478;8.986;2023-12-20T07:46:32;4.00;99.90
32612;DHT22;19030;49.478;8.986;2023-12-20T07:48:36;4.10;99.90
32612;DHT22;19030;49.478;8.986;2023-12-20T07:50:37;4.20;99.90
32612;DHT22;19030;49.478;8.986;2023-12-20T07:52:38;4.20;99.90
32612;DHT22;19030;49.478;8.986;2023-12-20T07:54:39;4.20;99.90
32612;DHT22;19030;49.478;8.986;2023-12-20T07:56:40;4.30;99.90
32612;DHT22;19030;49.478;8.986;2023-12-20T07:58:40;4.30;99.90
32612;DHT22;19030;49.478;8.986;2023-12-20T08:00:41;4.20;99.90
32612;DHT22;19030;49.478;8.986;2023-12-20T08:02:41;4.20;99.90
32612;DHT22;19030;49.478;8.986;2023-12-20T08:04:44;4.20;99.90
32612;DHT22;19030;49.478;8.986;2023-12-20T08:06:47;4.20;99.90
32612;DHT22;19030;49.478;8.986;2023-12-20T08:08:48;4.20;99.90
32612;DHT22;19030;49.478;8.986;2023-12-20T08:10:48;4.30;99.90
32612;DHT22;19030;49.478;8.986;2023-12-20T08:12:49;4.30;99.90
32612;DHT22;19030;49.478;8.986;2023-12-20T08:14:49;4.40;99.90
32612;DHT22;19030;49.478;8.986;2023-12-20T08:16:50;4.80;99.90
32612;DHT22;19030;49.478;8.986;2023-12-20T08:18:50;5.30;99.90
32612;DHT22;19030;49.478;8.986;2023-12-20T08:20:51;6.00;99.90
32612;DHT22;19030;49.478;8.986;2023-12-20T08:22:54;6.90;99.90
32612;DHT22;19030;49.478;8.986;2023-12-20T08:24:54;7.90;99.90
32612;DHT22;19030;49.478;8.986;2023-12-20T08:26:55;9.00;99.90
32612;DHT22;19030;49.478;8.986;2023-12-20T08:28:55;10.00;99.90
32612;DHT22;19030;49.478;8.986;2023-12-20T08:30:56;10.60;99.90
32612;DHT22;19030;49.478;8.986;2023-12-20T08:32:57;11.90;99.90
32612;DHT22;19030;49.478;8.986;2023-12-20T08:34:59;12.50;99.90
32612;DHT22;19030;49.478;8.986;2023-12-20T08:37:00;13.60;99.90
32612;DHT22;19030;49.478;8.986;2023-12-20T08:39:00;13.70;99.90
32612;DHT22;19030;49.478;8.986;2023-12-20T08:41:01;14.30;99.90
32612;DHT22;19030;49.478;8.986;2023-12-20T08:43:03;15.00;99.90
32612;DHT22;19030;49.478;8.986;2023-12-20T08:45:04;14.80;99.90
32612;DHT22;19030;49.478;8.986;2023-12-20T08:47:05;14.50;99.90
32612;DHT22;19030;49.478;8.986;2023-12-20T08:49:05;13.70;99.90
32612;DHT22;19030;49.478;8.986;2023-12-20T08:51:06;12.60;99.90
32612;DHT22;19030;49.478;8.986;2023-12-20T08:53:08;11.50;99.90
32612;DHT22;19030;49.478;8.986;2023-12-20T08:55:09;10.60;99.90
32612;DHT22;19030;49.478;8.986;2023-12-20T08:57:13;9.80;99.90
32612;DHT22;19030;49.478;8.986;2023-12-20T08:59:13;9.20;99.90
32612;DHT22;19030;49.478;8.986;2023-12-20T09:01:14;8.70;99.90
32612;DHT22;19030;49.478;8.986;2023-12-20T09:03:15;8.30;99.90
32612;DHT22;19030;49.478;8.986;2023-12-20T09:05:16;8.00;99.90
32612;DHT22;19030;49.478;8.986;2023-12-20T09:07:23;7.70;99.90
32612;DHT22;19030;49.478;8.986;2023-12-20T09:09:24;7.60;99.90
32612;DHT22;19030;49.478;8.986;2023-12-20T09:11:24;8.20;99.90
32612;DHT22;19030;49.478;8.986;2023-12-20T09:13:25;9.50;99.90
32612;DHT22;19030;49.478;8.986;2023-12-20T09:15:28;11.40;99.90
32612;DHT22;19030;49.478;8.986;2023-12-20T09:17:30;14.20;99.90
32612;DHT22;19030;49.478;8.986;2023-12-20T09:19:31;16.30;99.90
32612;DHT22;19030;49.478;8.986;2023-12-20T09:21:31;16.80;95.30
32612;DHT22;19030;49.478;8.986;2023-12-20T09:23:32;17.00;92.80
32612;DHT22;19030;49.478;8.986;2023-12-20T09:25:33;18.30;89.40
32612;DHT22;19030;49.478;8.986;2023-12-20T09:27:33;20.00;77.60
32612;DHT22;19030;49.478;8.986;2023-12-20T09:29:34;21.60;70.00
32612;DHT22;19030;49.478;8.986;2023-12-20T09:31:36;23.30;60.00
32612;DHT22;19030;49.478;8.986;2023-12-20T09:33:37;24.60;53.60
32612;DHT22;19030;49.478;8.986;2023-12-20T09:35:37;25.10;50.40
32612;DHT22;19030;49.478;8.986;2023-12-20T09:37:38;25.30;47.20
32612;DHT22;19030;49.478;8.986;2023-12-20T09:39:41;23.80;47.80
32612;DHT22;19030;49.478;8.986;2023-12-20T09:41:44;21.80;49.80
32612;DHT22;19030;49.478;8.986;2023-12-20T09:43:48;19.40;55.10
32612;DHT22;19030;49.478;8.986;2023-12-20T09:45:53;17.50;59.00
32612;DHT22;19030;49.478;8.986;2023-12-20T09:47:54;15.50;65.40
32612;DHT22;19030;49.478;8.986;2023-12-20T09:49:55;13.70;72.10
32612;DHT22;19030;49.478;8.986;2023-12-20T09:51:57;12.10;81.20
32612;DHT22;19030;49.478;8.986;2023-12-20T09:53:58;10.80;90.50
32612;DHT22;19030;49.478;8.986;2023-12-20T09:56:00;10.00;96.80
32612;DHT22;19030;49.478;8.986;2023-12-20T09:58:01;9.50;99.90
32612;DHT22;19030;49.478;8.986;2023-12-20T10:00:02;9.40;99.90
32612;DHT22;19030;49.478;8.986;2023-12-20T10:02:13;9.60;99.90
32612;DHT22;19030;49.478;8.986;2023-12-20T10:04:17;9.30;99.90
32612;DHT22;19030;49.478;8.986;2023-12-20T10:06:18;9.00;99.90
32612;DHT22;19030;49.478;8.986;2023-12-20T10:08:21;8.60;99.90
32612;DHT22;19030;49.478;8.986;2023-12-20T10:10:22;8.30;99.90
32612;DHT22;19030;49.478;8.986;2023-12-20T10:12:23;8.10;99.90
32612;DHT22;19030;49.478;8.986;2023-12-20T10:14:23;7.90;99.90
32612;DHT22;19030;49.478;8.986;2023-12-20T10:16:25;7.70;99.90
32612;DHT22;19030;49.478;8.986;2023-12-20T10:18:26;7.60;99.90
32612;DHT22;19030;49.478;8.986;2023-12-20T10:20:29;7.40;99.90
32612;DHT22;19030;49.478;8.986;2023-12-20T10:22:30;7.30;99.90
32612;DHT22;19030;49.478;8.986;2023-12-20T10:24:32;7.30;99.90
32612;DHT22;19030;49.478;8.986;2023-12-20T10:26:32;7.20;99.90
32612;DHT22;19030;49.478;8.986;2023-12-20T10:28:34;7.10;99.90
32612;DHT22;19030;49.478;8.986;2023-12-20T10:30:35;7.10;99.90
32612;DHT22;19030;49.478;8.986;2023-12-20T10:32:36;7.10;99.90
32612;DHT22;19030;49.478;8.986;2023-12-20T10:34:36;7.10;99.90
32612;DHT22;19030;49.478;8.986;2023-12-20T10:36:37;7.10;99.90
32612;DHT22;19030;49.478;8.986;2023-12-20T10:38:41;7.10;99.90
32612;DHT22;19030;49.478;8.986;2023-12-20T10:40:42;7.10;99.90
32612;DHT22;19030;49.478;8.986;2023-12-20T10:42:44;7.10;99.90
32612;DHT22;19030;49.478;8.986;2023-12-20T10:44:46;7.10;99.90
32612;DHT22;19030;49.478;8.986;2023-12-20T10:46:47;7.10;99.90
32612;DHT22;19030;49.478;8.986;2023-12-20T10:48:55;7.20;99.90
32612;DHT22;19030;49.478;8.986;2023-12-20T10:50:56;7.20;99.90
32612;DHT22;19030;49.478;8.986;2023-12-20T10:52:58;7.30;99.90
32612;DHT22;19030;49.478;8.986;2023-12-20T10:54:58;7.30;99.90
32612;DHT22;19030;49.478;8.986;2023-12-20T10:56:59;7.40;99.90
32612;DHT22;19030;49.478;8.986;2023-12-20T10:59:02;7.40;99.90
32612;DHT22;19030;49.478;8.986;2023-12-20T11:01:06;7.40;99.90
32612;DHT22;19030;49.478;8.986;2023-12-20T11:03:09;7.50;99.90
32612;DHT22;19030;49.478;8.986;2023-12-20T11:05:29;7.60;99.90
32612;DHT22;19030;49.478;8.986;2023-12-20T11:08:01;7.50;99.90
32612;DHT22;19030;49.478;8.986;2023-12-20T11:10:29;7.50;99.90
32612;DHT22;19030;49.478;8.986;2023-12-20T11:12:45;7.50;99.90
32612;DHT22;19030;49.478;8.986;2023-12-20T11:14:50;7.40;99.90
32612;DHT22;19030;49.478;8.986;2023-12-20T11:17:09;7.40;99.90
32612;DHT22;19030;49.478;8.986;2023-12-20T11:19:11;7.40;99.90
32612;DHT22;19030;49.478;8.986;2023-12-20T11:21:14;7.40;99.90
32612;DHT22;19030;49.478;8.986;2023-12-20T11:23:19;7.30;99.90
32612;DHT22;19030;49.478;8.986;2023-12-20T11:25:19;7.30;99.90
32612;DHT22;19030;49.478;8.986;2023-12-20T11:27:20;7.30;99.90
32612;DHT22;19030;49.478;8.986;2023-12-20T11:31:40;7.50;99.90
32612;DHT22;19030;49.478;8.986;2023-12-20T11:33:40;7.60;99.90
32612;DHT22;19030;49.478;8.986;2023-12-20T11:35:41;7.60;99.90
32612;DHT22;19030;49.478;8.986;2023-12-20T11:37:42;7.70;99.90
32612;DHT22;19030;49.478;8.986;2023-12-20T11:40:05;7.70;99.90
32612;DHT22;19030;49.478;8.986;2023-12-20T11:42:06;7.70;99.90
32612;DHT22;19030;49.478;8.986;2023-12-20T11:44:07;8.00;99.90
32612;DHT22;19030;49.478;8.986;2023-12-20T11:46:09;8.60;99.90
32612;DHT22;19030;49.478;8.986;2023-12-20T11:48:10;9.30;99.90
32612;DHT22;19030;49.478;8.986;2023-12-20T11:50:11;9.30;99.90
32612;DHT22;19030;49.478;8.986;2023-12-20T11:52:12;9.20;99.90
32612;DHT22;19030;49.478;8.986;2023-12-20T11:54:14;8.90;99.90
32612;DHT22;19030;49.478;8.986;2023-12-20T11:56:15;8.70;99.90
32612;DHT22;19030;49.478;8.986;2023-12-20T11:58:16;8.50;99.90
32612;DHT22;19030;49.478;8.986;2023-12-20T12:00:17;8.40;99.90
32612;DHT22;19030;49.478;8.986;2023-12-20T12:02:18;8.20;99.90
32612;DHT22;19030;49.478;8.986;2023-12-20T12:04:18;8.10;99.90
32612;DHT22;19030;49.478;8.986;2023-12-20T12:06:19;8.10;99.90
32612;DHT22;19030;49.478;8.986;2023-12-20T12:08:20;8.30;99.90
32612;DHT22;19030;49.478;8.986;2023-12-20T12:10:21;8.70;99.90
32612;DHT22;19030;49.478;8.986;2023-12-20T12:12:22;9.10;99.90
32612;DHT22;19030;49.478;8.986;2023-12-20T12:14:24;9.20;99.90
32612;DHT22;19030;49.478;8.986;2023-12-20T12:16:25;9.20;99.90
32612;DHT22;19030;49.478;8.986;2023-12-20T12:18:25;9.00;99.90
32612;DHT22;19030;49.478;8.986;2023-12-20T12:20:26;8.70;99.90
32612;DHT22;19030;49.478;8.986;2023-12-20T12:22:26;8.30;99.90
32612;DHT22;19030;49.478;8.986;2023-12-20T12:24:28;7.80;99.90
32612;DHT22;19030;49.478;8.986;2023-12-20T12:26:30;7.60;99.90
32612;DHT22;19030;49.478;8.986;2023-12-20T12:28:31;7.40;99.90
32612;DHT22;19030;49.478;8.986;2023-12-20T12:30:33;7.20;99.90
32612;DHT22;19030;49.478;8.986;2023-12-20T12:32:33;7.20;99.90
32612;DHT22;19030;49.478;8.986;2023-12-20T12:34:35;7.10;99.90
32612;DHT22;19030;49.478;8.986;2023-12-20T12:36:35;7.10;99.90
32612;DHT22;19030;49.478;8.986;2023-12-20T12:38:36;7.10;99.90
32612;DHT22;19030;49.478;8.986;2023-12-20T12:40:36;7.10;99.90
32612;DHT22;19030;49.478;8.986;2023-12-20T12:42:37;7.10;99.90
32612;DHT22;19030;49.478;8.986;2023-12-20T12:44:38;7.00;99.90
32612;DHT22;19030;49.478;8.986;2023-12-20T12:46:39;6.90;99.90
32612;DHT22;19030;49.478;8.986;2023-12-20T12:48:39;6.80;99.90
32612;DHT22;19030;49.478;8.986;2023-12-20T12:50:40;6.70;99.90
32612;DHT22;19030;49.478;8.986;2023-12-20T12:52:40;6.70;99.90
32612;DHT22;19030;49.478;8.986;2023-12-20T12:54:41;6.70;99.90
32612;DHT22;19030;49.478;8.986;2023-12-20T12:56:43;6.70;99.90
32612;DHT22;19030;49.478;8.986;2023-12-20T12:58:44;6.70;99.90
32612;DHT22;19030;49.478;8.986;2023-12-20T13:00:45;6.60;99.90